Tuesday, September 27, 2016, 1:09 PM EDT

KGED, Georgetown Sussex Co Airport

Location: Georgetown, DE, United States Lat: 38.683
Local Time: 1:09 PM EDT (17:09 GMT) Lon: -75.367
Time Zone: US/Eastern Elev: 52 ft

Show me the last for .
Show Decoded

2016-09-27 12:54 METAR KGED 271654Z AUTO 01004KT 4SM -RA BR FEW050 SCT070 OVC090 19/19 A2997 RMK
                 AO2 SLP146 P0007 T01890189 =
2016-09-27 12:52 METAR KGED 271652Z AUTO 02004KT 5SM -RA BR FEW060 SCT080 OVC100 19/18 A2996 RMK
                 AO2 P0006 =
2016-09-27 12:43 METAR KGED 271643Z AUTO 01004KT 2SM -RA BR FEW008 BKN070 OVC100 19/18 A2997 RMK
                 AO2 P0006 T01890178 =
2016-09-27 12:35 METAR KGED 271635Z AUTO 34004KT 4SM -RA BR FEW008 BKN055 OVC090 19/18 A2997 RMK
                 AO2 P0003 T01890178 =
2016-09-27 12:25 METAR KGED 271625Z AUTO 35006KT 4SM -RA BR SCT009 BKN021 OVC070 19/17 A2997 RMK
                 AO2 P0002 T01940172 =
2016-09-27 11:54 METAR KGED 271554Z AUTO 35005KT 7SM -RA FEW009 BKN035 OVC042 20/18 A2997 RMK AO2
                 RAE06B46 SLP148 P0000 T02000183 =
2016-09-27 11:38 METAR KGED 271538Z AUTO 32004KT 10SM FEW007 BKN035 OVC043 20/19 A2997 RMK AO2
                 RAE06 P0000 T02000189 =
2016-09-27 10:54 METAR KGED 271454Z AUTO 32003KT 10SM -RA OVC046 20/19 A2998 RMK AO2 RAB09 SLP152
                 P0001 60001 T02000189 50005 =
2016-09-27 09:54 METAR KGED 271354Z AUTO 00000KT 10SM OVC039 20/19 A2999 RMK AO2 SLP153 T02000189
                 =
2016-09-27 08:54 METAR KGED 271254Z AUTO 00000KT 10SM OVC033 19/19 A2998 RMK AO2 RAE01 SLP150
                 P0000 T01940189 =
2016-09-27 08:16 METAR KGED 271216Z AUTO 30003KT 10SM FEW026 OVC032 19/19 A2998 RMK AO2 RAE01
                 P0000 T01940189 =
2016-09-27 07:54 METAR KGED 271154Z AUTO 28004KT 8SM -RA OVC021 20/19 A2997 RMK AO2 SLP146 P0003
                 60019 70020 T02000189 10206 20200 53008 =
2016-09-27 07:15 METAR KGED 271115Z AUTO 00000KT 7SM -RA FEW009 SCT013 OVC020 20/19 A2995 RMK AO2
                 P0001 T02000194 =
2016-09-27 07:08 METAR KGED 271108Z AUTO 27003KT 7SM -RA BKN013 OVC020 20/19 A2995 RMK AO2 P0001
                 T02000194 =
2016-09-27 06:54 METAR KGED 271054Z AUTO 00000KT 8SM -RA FEW009 OVC015 20/19 A2994 RMK AO2 SLP138
                 P0001 T02000194 =
2016-09-27 06:25 METAR KGED 271025Z AUTO 24003KT 6SM -RA BR FEW005 SCT010 OVC017 20/20 A2995 RMK
                 AO2 P0000 T02000200 =
2016-09-27 06:03 METAR KGED 271003Z AUTO 30005KT 8SM -RA BKN005 OVC022 20/20 A2995 RMK AO2 P0000
                 T02000200 =
2016-09-27 05:54 METAR KGED 270954Z AUTO 23003KT 6SM -RA BR SCT006 OVC022 20/20 A2994 RMK AO2
                 RAB08E35B53 SLP139 P0005 T02000200 =
2016-09-27 05:25 METAR KGED 270925Z AUTO 24003KT 9SM -RA BKN025 OVC034 20/19 A2994 RMK AO2 RAB08
                 P0004 T02000194 =
2016-09-27 04:54 METAR KGED 270854Z AUTO 24003KT 10SM BKN037 21/19 A2994 RMK AO2 RAE28 SLP138
                 P0000 60010 T02060194 58009 =
2016-09-27 03:54 METAR KGED 270754Z AUTO 24006KT 10SM -RA OVC036 21/19 A2995 RMK AO2 SLP142 P0004
                 T02060194 =
2016-09-27 02:54 METAR KGED 270654Z AUTO 22007KT 10SM -RA FEW019 BKN035 OVC045 20/20 A2996 RMK
                 AO2 RAB13 SLP144 P0006 T02000200 =
2016-09-27 01:54 METAR KGED 270554Z AUTO 21007KT 10SM OVC038 20/18 A2997 RMK AO2 SLP147 60001
                 T02000183 10206 20189 56020 =
2016-09-27 00:54 METAR KGED 270454Z AUTO 20007KT 10SM BKN040 20/18 A2997 RMK AO2 RAB04E27 SLP149
                 P0000 T02000183 402390094 =
2016-09-26 23:54 METAR KGED 270354Z AUTO 18007KT 10SM FEW019 OVC044 19/18 A3000 RMK AO2 RAE12
                 SLP158 P0001 T01940178 =
2016-09-26 23:14 METAR KGED 270314Z AUTO 17004KT 10SM FEW017 SCT029 OVC041 19/18 A3002 RMK AO2
                 RAE12 P0001 T01890178 =
2016-09-26 22:54 METAR KGED 270254Z AUTO 00000KT 10SM -RA BKN022 BKN029 OVC036 19/17 A3003 RMK
                 AO2 RAB37 SLP166 P0000 60000 T01940172 56013 =
2016-09-26 22:50 METAR KGED 270250Z AUTO 00000KT 10SM -RA SCT022 BKN029 OVC036 20/17 A3003 RMK
                 AO2 RAB37 P0000 =
2016-09-26 22:41 METAR KGED 270241Z AUTO 00000KT 9SM -RA SCT024 BKN032 OVC046 20/17 A3003 RMK AO2
                 RAB37 P0000 T02000167 =
2016-09-26 22:29 METAR KGED 270229Z AUTO 00000KT 10SM BKN026 BKN032 OVC046 19/17 A3004 RMK AO2
                 T01940167 =
2016-09-26 21:54 METAR KGED 270154Z AUTO 00000KT 10SM FEW026 OVC045 20/16 A3005 RMK AO2 RAB41E54
                 SLP174 P0000 T02000161 =
2016-09-26 20:54 METAR KGED 270054Z AUTO 19005KT 10SM OVC044 20/16 A3006 RMK AO2 SLP179 T02000161
                 =
2016-09-26 19:54 METAR KGED 262354Z AUTO 19005KT 10SM BKN046 OVC085 21/16 A3006 RMK AO2 SLP179
                 T02060156 10239 20206 53002 =
2016-09-26 18:54 METAR KGED 262254Z AUTO 17008KT 10SM BKN050 BKN085 21/15 A3005 RMK AO2 SLP175
                 T02060150 =
2016-09-26 17:54 METAR KGED 262154Z AUTO 16005KT 10SM OVC048 22/14 A3006 RMK AO2 SLP178 T02170139
                 =
2016-09-26 16:54 METAR KGED 262054Z AUTO 18010KT 10SM SCT050 BKN085 22/12 A3006 RMK AO2 SLP177
                 T02220122 58021 =
2016-09-26 15:54 METAR KGED 261954Z AUTO 19010KT 10SM SCT049 BKN080 23/12 A3008 RMK AO2 SLP184
                 T02330122 =
2016-09-26 14:54 METAR KGED 261854Z AUTO 18008KT 10SM OVC050 23/11 A3010 RMK AO2 SLP192 T02330106
                 =
2016-09-26 13:54 METAR KGED 261754Z AUTO 13012G16KT 10SM SCT055 23/09 A3012 RMK AO2 SLP198
                 T02330094 10239 20117 58021 =

Support USWX by starting your Amazon purchase here.